Time;durP1;ratioP1;P1;durP2;ratioP2;P2;SDS_P1;SDS_P2;PMS_P1;PMS_P2;Temp;Humidity;BMP_temperature;BMP_pressure;BME280_temperature;BME280_humidity;BME280_pressure;Samples;Min_cycle;Max_cycle;Signal;HPM_P1;HPM_P2
2021/12/13 00:02:26;;;;;;;6.50;6.03;;;;;;;22.92;31.01;94996.75;4966280;28;102799;-49
2021/12/13 00:05:01;;;;;;;5.93;5.53;;;;;;;22.92;31.35;95010.06;4979888;28;102861;-49
2021/12/13 00:07:31;;;;;;;5.87;5.47;;;;;;;22.90;31.15;95005.03;4978976;28;104014;-49
2021/12/13 00:09:59;;;;;;;5.83;5.43;;;;;;;22.90;30.93;95007.72;4979415;28;102957;-49
2021/12/13 00:12:33;;;;;;;6.43;6.03;;;;;;;22.74;31.06;94982.50;4974427;28;102728;-49
2021/12/13 00:15:02;;;;;;;5.93;5.53;;;;;;;22.90;31.16;95007.72;4978760;28;102723;-49
2021/12/13 00:17:44;;;;;;;5.80;5.40;;;;;;;22.89;31.11;95011.47;4979630;28;103353;-49
2021/12/13 00:20:13;;;;;;;6.10;5.70;;;;;;;22.89;31.00;95011.47;4979897;28;102786;-49
2021/12/13 00:22:44;;;;;;;6.00;5.60;;;;;;;22.89;31.08;95014.13;4974413;28;105294;-49
2021/12/13 00:25:14;;;;;;;5.80;5.40;;;;;;;22.89;30.86;95008.00;4979340;28;102594;-49
2021/12/13 00:27:46;;;;;;;6.40;6.00;;;;;;;22.88;31.19;95015.22;4979348;28;102861;-49
2021/12/13 00:30:11;;;;;;;5.90;5.40;;;;;;;22.89;31.01;95002.69;4978291;28;102814;-49
2021/12/13 00:33:17;;;;;;;5.80;5.40;;;;;;;22.88;31.59;95006.44;4979372;28;102856;-49
2021/12/13 00:35:59;;;;;;;5.27;4.97;;;;;;;22.89;30.88;95008.00;4973948;28;102773;-49
2021/12/13 00:38:28;;;;;;;5.70;5.30;;;;;;;22.88;31.08;95006.44;4979240;28;103222;-49
2021/12/13 00:41:04;;;;;;;5.90;5.50;;;;;;;22.86;30.95;95006.75;4978958;28;103427;-49
2021/12/13 00:43:36;;;;;;;5.80;5.40;;;;;;;22.86;31.25;95009.41;4979410;28;102594;-49
2021/12/13 00:46:10;;;;;;;5.17;4.77;;;;;;;22.87;30.98;95011.00;4974847;28;103316;-49
2021/12/13 00:48:38;;;;;;;6.50;6.10;;;;;;;22.86;30.48;95009.41;4979252;28;103231;-49
2021/12/13 00:51:10;;;;;;;6.03;5.63;;;;;;;22.85;31.25;95010.50;4978668;28;103592;-49
2021/12/13 00:53:39;;;;;;;6.40;6.00;;;;;;;22.86;30.82;95003.31;4978910;28;102835;-49
2021/12/13 00:57:09;;;;;;;6.00;5.60;;;;;;;22.85;30.52;95007.84;4973979;28;102808;-49
2021/12/13 00:59:46;;;;;;;5.90;5.50;;;;;;;22.86;30.87;95009.41;4946802;28;104568;-49
2021/12/13 01:02:26;;;;;;;6.00;5.60;;;;;;;22.86;30.67;95003.31;4979186;28;103321;-49
2021/12/13 01:04:54;;;;;;;6.40;6.00;;;;;;;22.85;30.99;95005.19;4944711;28;102841;-50
2021/12/13 01:07:57;;;;;;;6.43;6.03;;;;;;;22.85;30.78;95001.72;4973586;28;102934;-49
2021/12/13 01:10:54;;;;;;;5.83;5.43;;;;;;;22.85;30.71;94991.06;4976342;28;102676;-49
2021/12/13 01:13:32;;;;;;;7.07;6.57;;;;;;;22.83;31.05;94991.34;4962981;28;102752;-50
2021/12/13 01:19:25;;;;;;;6.70;6.20;;;;;;;22.85;31.18;95007.06;4925459;28;102860;-49
2021/12/13 01:22:42;;;;;;;6.77;6.27;;;;;;;22.84;31.02;95000.91;4977117;28;103342;-49
2021/12/13 01:25:20;;;;;;;6.80;6.30;;;;;;;22.85;30.71;94999.06;4978120;28;103470;-49
2021/12/13 01:27:58;;;;;;;5.93;5.53;;;;;;;22.84;30.33;94995.59;4981765;28;102619;-49
2021/12/13 01:30:31;;;;;;;6.67;6.17;;;;;;;22.84;30.77;94998.25;4973807;28;103095;-49
2021/12/13 01:33:00;;;;;;;7.30;6.80;;;;;;;22.83;30.87;95007.34;4978673;28;102781;-49
2021/12/13 01:35:31;;;;;;;6.70;6.20;;;;;;;22.83;31.14;95001.22;4977577;28;103255;-49
2021/12/13 01:38:03;;;;;;;6.90;6.40;;;;;;;22.83;30.56;95004.66;4977512;28;102761;-49
2021/12/13 01:40:31;;;;;;;7.40;6.90;;;;;;;22.83;30.71;95003.88;4973084;28;102991;-49
2021/12/13 01:43:07;;;;;;;7.20;6.60;;;;;;;22.81;30.69;94998.84;4978234;28;103182;-49
2021/12/13 01:45:36;;;;;;;7.20;6.70;;;;;;;22.82;30.60;95000.44;4978512;28;102665;-49
2021/12/13 01:48:03;;;;;;;7.50;7.00;;;;;;;22.81;30.36;95001.50;4959571;28;102816;-49
2021/12/13 01:50:41;;;;;;;7.20;6.70;;;;;;;22.81;30.90;95002.28;4977818;28;102814;-49
2021/12/13 01:53:08;;;;;;;7.00;6.40;;;;;;;22.74;30.56;94985.19;4959584;28;102890;-49
2021/12/13 01:55:38;;;;;;;7.40;6.90;;;;;;;22.81;30.47;94988.19;4978253;28;102766;-49
2021/12/13 01:58:36;;;;;;;7.90;7.20;;;;;;;22.80;30.77;94995.38;4975252;28;104992;-49
2021/12/13 02:01:09;;;;;;;7.77;7.17;;;;;;;22.80;30.79;94998.06;4977286;28;103937;-49
2021/12/13 02:03:55;;;;;;;6.57;6.17;;;;;;;22.78;30.96;94986.91;4973032;28;103393;-49
2021/12/13 02:06:44;;;;;;;7.73;7.17;;;;;;;22.79;30.52;94998.34;4977870;28;102848;-49
2021/12/13 02:09:13;;;;;;;7.00;6.50;;;;;;;22.80;30.67;94989.28;4977061;28;102939;-49
2021/12/13 02:11:40;;;;;;;7.00;6.50;;;;;;;22.77;30.39;94981.91;4979164;28;102801;-49
2021/12/13 02:14:14;;;;;;;7.10;6.60;;;;;;;22.79;30.49;94991.16;4972261;28;102783;-49
2021/12/13 02:17:10;;;;;;;6.37;5.97;;;;;;;22.80;30.71;94991.94;4978412;28;102738;-49
2021/12/13 02:19:45;;;;;;;6.73;6.27;;;;;;;22.79;30.52;94985.03;4977552;28;102879;-49
2021/12/13 02:22:33;;;;;;;7.03;6.53;;;;;;;22.78;30.57;94986.13;4977993;28;102772;-49
2021/12/13 02:25:28;;;;;;;6.50;6.10;;;;;;;22.79;30.33;94987.69;4966877;28;103575;-49
2021/12/13 02:28:06;;;;;;;7.50;7.00;;;;;;;22.78;30.51;94980.81;4971642;28;102837;-49
2021/12/13 02:30:43;;;;;;;7.13;6.53;;;;;;;22.78;30.45;94986.13;4965048;28;102653;-49
2021/12/13 02:33:17;;;;;;;6.40;6.00;;;;;;;22.78;30.33;94988.78;4982641;28;103221;-49
2021/12/13 02:35:47;;;;;;;7.17;6.67;;;;;;;22.76;30.53;94989.09;4975602;28;102756;-49
2021/12/13 02:38:15;;;;;;;7.13;6.63;;;;;;;22.77;30.77;94987.22;4981740;28;102841;-49
2021/12/13 02:40:41;;;;;;;7.20;6.80;;;;;;;22.73;30.57;94987.06;4980289;28;102781;-49
2021/12/13 02:43:11;;;;;;;6.90;6.40;;;;;;;22.76;30.36;94990.97;4981331;28;102609;-49
2021/12/13 02:45:43;;;;;;;6.67;6.20;;;;;;;22.76;30.60;94999.75;4979847;28;102948;-49
2021/12/13 02:48:31;;;;;;;7.47;6.97;;;;;;;22.76;30.30;95002.41;4976520;28;103506;-49
2021/12/13 02:50:56;;;;;;;7.03;6.53;;;;;;;22.77;30.51;94997.88;4981327;28;102978;-50
2021/12/13 02:53:34;;;;;;;7.13;6.63;;;;;;;22.76;30.29;94998.97;4981210;28;103022;-49
2021/12/13 02:56:00;;;;;;;7.57;6.97;;;;;;;22.76;30.13;94999.75;4980632;28;103201;-49
2021/12/13 02:58:27;;;;;;;6.80;6.20;;;;;;;22.75;30.81;95003.50;4975464;28;102917;-49
2021/12/13 03:01:38;;;;;;;7.80;7.20;;;;;;;22.75;30.11;95006.19;4980569;28;102626;-49
2021/12/13 03:04:08;;;;;;;7.57;6.97;;;;;;;22.76;30.47;94996.31;4955431;28;102961;-49
2021/12/13 03:06:38;;;;;;;6.83;6.33;;;;;;;22.70;30.37;94984.22;4979697;28;104196;-49
2021/12/13 03:09:10;;;;;;;7.10;6.57;;;;;;;22.73;30.19;94989.72;4975183;28;103383;-49
2021/12/13 03:11:36;;;;;;;7.53;6.93;;;;;;;22.65;30.41;94985.09;4979979;28;103867;-49
2021/12/13 03:14:16;;;;;;;6.83;6.33;;;;;;;22.74;30.31;94993.94;4980773;28;102908;-49
2021/12/13 03:17:00;;;;;;;7.40;6.90;;;;;;;22.74;30.11;94996.63;4979989;28;102998;-49
2021/12/13 03:19:43;;;;;;;6.73;6.23;;;;;;;22.74;30.41;94991.28;4974182;28;103157;-49
2021/12/13 03:22:31;;;;;;;7.00;6.50;;;;;;;22.69;30.68;94990.63;4980263;28;102907;-49
2021/12/13 03:25:18;;;;;;;7.30;6.80;;;;;;;22.74;30.45;94995.81;4981196;28;103789;-49
2021/12/13 03:28:09;;;;;;;6.90;6.40;;;;;;;22.74;30.20;94993.16;4982769;28;102739;-49
2021/12/13 03:30:48;;;;;;;7.47;6.87;;;;;;;22.76;29.73;94986.44;4991058;28;103299;-49
2021/12/13 03:33:19;;;;;;;6.70;6.20;;;;;;;22.79;30.17;94987.69;4978997;28;102701;-49
2021/12/13 03:35:51;;;;;;;7.20;6.70;;;;;;;22.84;29.76;94994.81;4980563;28;102919;-49
2021/12/13 03:38:22;;;;;;;6.43;5.97;;;;;;;22.86;29.83;94997.97;4980689;28;103100;-49
2021/12/13 03:40:49;;;;;;;6.37;5.87;;;;;;;22.83;29.80;94991.34;4976639;28;102844;-49
2021/12/13 03:43:31;;;;;;;6.40;5.90;;;;;;;22.91;29.61;95000.50;4957998;28;103719;-49
2021/12/13 03:46:02;;;;;;;6.47;5.97;;;;;;;22.87;29.83;94992.34;4980203;28;102816;-49
2021/12/13 03:48:29;;;;;;;6.43;5.97;;;;;;;22.91;29.62;94987.97;4978999;28;103397;-49
2021/12/13 03:51:00;;;;;;;6.13;5.63;;;;;;;22.94;30.01;94994.56;4979511;28;102811;-50
2021/12/13 03:53:28;;;;;;;6.23;5.83;;;;;;;22.89;29.98;94997.34;4974889;28;103200;-50
2021/12/13 03:56:02;;;;;;;4.73;4.30;;;;;;;22.81;30.37;94994.28;4978433;28;102871;-50
2021/12/13 03:58:30;;;;;;;4.10;3.80;;;;;;;22.82;30.63;95000.44;4959816;28;102901;-49
2021/12/13 04:00:59;;;;;;;5.00;4.63;;;;;;;22.81;30.32;94996.97;4968183;28;102852;-49
2021/12/13 04:03:28;;;;;;;4.90;4.50;;;;;;;22.83;30.17;94996.69;4975351;28;104153;-48
2021/12/13 04:05:58;;;;;;;4.43;4.03;;;;;;;22.84;30.21;94992.94;4984773;28;103156;-48
2021/12/13 04:08:25;;;;;;;4.57;4.27;;;;;;;22.94;29.44;94997.22;4998397;28;103190;-48
2021/12/13 04:10:59;;;;;;;5.03;4.63;;;;;;;23.00;30.11;94999.44;4987222;28;103271;-48
2021/12/13 04:13:29;;;;;;;6.00;4.80;;;;;;;23.03;29.91;94998.84;4980226;28;102748;-48
2021/12/13 04:16:15;;;;;;;4.60;4.30;;;;;;;23.03;30.02;94993.53;4978442;28;102762;-48
2021/12/13 04:21:49;;;;;;;4.83;4.43;;;;;;;23.10;30.66;95015.19;4961361;28;102723;-48
2021/12/13 04:24:26;;;;;;;4.60;4.20;;;;;;;23.20;29.51;95008.03;4982967;28;103066;-48
2021/12/13 04:26:58;;;;;;;4.23;3.93;;;;;;;23.27;29.60;95019.81;4956272;28;103132;-48
2021/12/13 04:29:31;;;;;;;4.00;3.70;;;;;;;23.33;29.75;95010.56;4988010;28;102680;-48
2021/12/13 04:31:59;;;;;;;4.00;3.70;;;;;;;23.36;29.88;95022.53;4983281;28;102761;-48
2021/12/13 04:34:28;;;;;;;4.37;4.03;;;;;;;23.39;30.21;95027.22;4979286;28;103401;-47
2021/12/13 04:36:56;;;;;;;4.77;3.50;;;;;;;23.38;30.43;95029.13;4973305;28;104394;-47
2021/12/13 04:39:33;;;;;;;4.30;4.00;;;;;;;23.35;30.33;95019.06;4978686;28;103163;-47
2021/12/13 04:42:02;;;;;;;4.00;3.70;;;;;;;23.41;30.45;95031.16;4961921;28;103048;-47
2021/12/13 04:44:42;;;;;;;4.97;3.73;;;;;;;23.40;29.96;95032.25;4979571;28;102705;-47
2021/12/13 04:47:14;;;;;;;6.10;3.23;;;;;;;23.40;30.93;95028.81;4980680;28;102736;-49
2021/12/13 04:49:48;;;;;;;4.00;3.27;;;;;;;23.40;31.00;95032.25;4979895;28;103236;-48
2021/12/13 04:52:17;;;;;;;5.03;3.60;;;;;;;23.37;30.84;95035.53;4976495;28;102741;-49
2021/12/13 04:54:47;;;;;;;6.10;3.13;;;;;;;23.35;30.78;95037.72;4977249;28;102657;-48
2021/12/13 04:57:13;;;;;;;6.60;3.63;;;;;;;23.35;30.57;95043.06;4979876;28;103119;-48
2021/12/13 04:59:40;;;;;;;3.47;3.13;;;;;;;23.37;30.47;95037.41;4973411;28;103006;-48
2021/12/13 05:02:10;;;;;;;4.07;3.67;;;;;;;23.39;30.55;95043.22;4978777;28;102797;-48
2021/12/13 05:04:36;;;;;;;3.47;3.07;;;;;;;23.41;30.58;95041.81;4978716;28;103044;-49
2021/12/13 05:07:05;;;;;;;3.40;3.10;;;;;;;23.36;31.04;95028.63;4979704;28;103161;-49
2021/12/13 05:09:32;;;;;;;3.40;3.10;;;;;;;23.45;30.95;95043.88;4973047;28;102747;-48
2021/12/13 05:12:13;;;;;;;3.63;2.93;;;;;;;23.43;30.45;95046.84;4978012;28;102772;-48
2021/12/13 05:14:50;;;;;;;3.57;3.27;;;;;;;23.41;30.71;95046.38;4976921;28;102904;-49
2021/12/13 05:17:44;;;;;;;3.43;3.17;;;;;;;23.39;30.36;95045.91;4978294;28;103282;-48
2021/12/13 05:20:29;;;;;;;3.60;3.23;;;;;;;23.38;30.91;95050.44;4973647;28;103225;-48
2021/12/13 05:23:00;;;;;;;3.37;2.67;;;;;;;23.38;30.80;95047.78;4978587;28;103440;-48
2021/12/13 05:25:33;;;;;;;2.77;2.67;;;;;;;23.36;30.48;95051.84;4978250;28;102841;-48
2021/12/13 05:28:36;;;;;;;2.70;2.60;;;;;;;23.35;30.87;95051.06;4979507;28;102710;-48
2021/12/13 05:31:18;;;;;;;2.63;2.53;;;;;;;23.35;30.47;95056.41;4954846;28;103305;-48
2021/12/13 05:33:51;;;;;;;2.60;2.40;;;;;;;23.34;30.43;95068.13;4958566;28;103252;-49
2021/12/13 05:36:25;;;;;;;3.30;3.10;;;;;;;23.31;30.69;95060.75;4959373;28;103358;-49
2021/12/13 05:39:05;;;;;;;3.03;2.83;;;;;;;23.28;30.61;95055.25;4959344;28;102957;-49
2021/12/13 05:41:31;;;;;;;2.97;2.77;;;;;;;23.31;30.49;95063.41;4958406;28;103267;-49
2021/12/13 05:44:01;;;;;;;3.10;2.90;;;;;;;23.30;30.24;95064.50;4954189;28;102790;-49
2021/12/13 05:46:42;;;;;;;2.90;2.70;;;;;;;23.32;30.58;95069.53;4958508;28;102716;-49
2021/12/13 05:49:33;;;;;;;2.83;2.63;;;;;;;23.33;30.50;95071.09;4958946;28;102767;-50
2021/12/13 05:52:13;;;;;;;3.10;2.80;;;;;;;23.31;30.36;95074.06;4958450;28;102957;-50
2021/12/13 05:54:49;;;;;;;3.50;2.63;;;;;;;23.30;30.46;95069.06;4953322;28;102869;-49
2021/12/13 05:57:31;;;;;;;3.00;2.80;;;;;;;23.27;30.43;95077.66;4958797;28;103929;-50
2021/12/13 06:00:09;;;;;;;2.87;2.67;;;;;;;23.19;30.86;95086.41;4959723;28;103164;-50
2021/12/13 06:02:40;;;;;;;3.27;3.07;;;;;;;23.07;30.57;95078.97;4958533;28;103209;-50
2021/12/13 06:05:32;;;;;;;3.13;2.93;;;;;;;23.07;30.79;95089.63;4954005;28;104870;-50
2021/12/13 06:08:02;;;;;;;3.60;3.30;;;;;;;23.06;30.50;95104.81;4961384;28;102806;-50
2021/12/13 06:10:41;;;;;;;3.23;2.97;;;;;;;23.04;30.99;95106.22;4961475;28;102931;-49
2021/12/13 06:13:08;;;;;;;3.50;3.30;;;;;;;23.02;31.01;95101.19;4962247;28;102992;-49
2021/12/13 06:15:40;;;;;;;4.30;4.00;;;;;;;22.98;31.04;95105.53;4955869;28;103791;-49
2021/12/13 06:18:18;;;;;;;4.93;4.53;;;;;;;22.99;31.11;95103.66;4961536;28;103014;-49
2021/12/13 06:20:50;;;;;;;4.37;3.97;;;;;;;22.97;30.68;95101.31;4962166;28;102724;-49
2021/12/13 06:23:23;;;;;;;3.93;3.63;;;;;;;22.96;30.63;95105.06;4961788;28;103277;-49
2021/12/13 06:26:03;;;;;;;3.77;3.47;;;;;;;22.71;31.02;95071.00;4961422;28;102630;-49
2021/12/13 06:28:36;;;;;;;4.30;4.00;;;;;;;22.94;30.53;95099.25;4961565;28;102925;-49
2021/12/13 06:31:05;;;;;;;4.23;3.93;;;;;;;22.94;30.90;95098.47;4981438;28;102820;-49
2021/12/13 06:33:50;;;;;;;4.13;3.83;;;;;;;22.92;30.56;95106.75;4980426;28;102959;-49
2021/12/13 06:36:29;;;;;;;3.97;3.77;;;;;;;22.92;30.66;95105.97;4980258;28;103678;-49
2021/12/13 06:38:57;;;;;;;4.47;4.17;;;;;;;22.91;31.16;95113.19;4974173;28;102812;-49
2021/12/13 06:41:26;;;;;;;4.40;4.10;;;;;;;22.89;30.72;95112.69;4980343;28;102764;-49
2021/12/13 06:44:02;;;;;;;4.23;3.93;;;;;;;22.91;30.68;95123.06;4981316;28;102759;-49
2021/12/13 06:46:37;;;;;;;4.07;3.80;;;;;;;22.89;30.65;95117.25;4980711;28;103284;-49
2021/12/13 06:49:05;;;;;;;4.10;3.80;;;;;;;22.88;30.80;95118.34;4975490;28;103189;-49
2021/12/13 06:51:45;;;;;;;4.30;4.00;;;;;;;22.79;30.76;95116.34;4981895;28;102745;-49
2021/12/13 06:54:16;;;;;;;4.23;3.93;;;;;;;22.79;30.81;95115.56;4980857;28;103188;-49
2021/12/13 06:56:46;;;;;;;4.00;3.70;;;;;;;22.85;30.85;95127.72;4981546;28;103294;-49
2021/12/13 06:59:18;;;;;;;3.60;3.40;;;;;;;22.86;30.68;95137.28;4975594;28;102681;-49
2021/12/13 07:01:56;;;;;;;3.40;3.20;;;;;;;22.80;30.33;95131.25;4962230;28;102947;-49
2021/12/13 07:04:22;;;;;;;4.43;4.13;;;;;;;22.84;30.78;95141.31;4980614;28;103063;-49
2021/12/13 07:06:48;;;;;;;5.73;5.33;;;;;;;22.83;30.54;95142.41;4980689;28;102710;-49
2021/12/13 07:09:17;;;;;;;4.80;4.40;;;;;;;22.82;30.78;95144.28;4980147;28;102753;-49
2021/12/13 07:11:54;;;;;;;4.90;4.50;;;;;;;22.80;30.79;95144.56;4975530;28;102778;-49
2021/12/13 07:14:36;;;;;;;4.70;4.40;;;;;;;22.80;30.43;95151.75;4980807;28;103248;-49
2021/12/13 07:17:14;;;;;;;5.03;4.53;;;;;;;22.79;30.41;95150.97;4979635;28;102797;-49
2021/12/13 07:19:41;;;;;;;4.63;4.33;;;;;;;22.73;30.80;95141.53;4980455;28;103332;-49
2021/12/13 07:22:08;;;;;;;4.60;4.30;;;;;;;22.79;30.20;95150.97;4975898;28;103240;-49
2021/12/13 07:24:42;;;;;;;4.27;3.97;;;;;;;22.80;30.93;95151.75;4979562;28;102946;-49
2021/12/13 07:27:45;;;;;;;4.70;4.40;;;;;;;22.78;30.37;95157.38;4980260;28;104573;-49
2021/12/13 07:30:21;;;;;;;5.10;4.80;;;;;;;22.80;30.37;95149.09;4956987;28;102796;-49
2021/12/13 07:32:57;;;;;;;5.17;4.87;;;;;;;22.79;30.77;95158.19;4975754;28;102743;-49
2021/12/13 07:35:30;;;;;;;5.50;4.97;;;;;;;22.80;30.16;95157.09;4979729;28;102626;-49
2021/12/13 07:37:58;;;;;;;5.50;5.10;;;;;;;22.80;30.35;95165.06;4980608;28;102694;-49
2021/12/13 07:40:29;;;;;;;6.47;6.00;;;;;;;22.78;30.68;95160.06;4980226;28;103251;-49
2021/12/13 07:43:10;;;;;;;6.30;5.90;;;;;;;22.88;30.47;95167.06;4981339;28;102798;-50
2021/12/13 07:46:02;;;;;;;5.70;5.30;;;;;;;22.99;30.36;95159.63;4980189;28;103225;-49
2021/12/13 07:48:33;;;;;;;5.77;5.37;;;;;;;23.01;29.93;95166.25;4979432;28;103663;-49
2021/12/13 07:51:47;;;;;;;6.23;5.80;;;;;;;23.04;30.47;95167.53;4980066;28;103631;-50
2021/12/13 07:54:16;;;;;;;6.00;5.60;;;;;;;23.06;30.41;95173.31;4957940;28;102882;-49
2021/12/13 07:56:52;;;;;;;6.00;5.50;;;;;;;23.06;30.28;95174.13;4979702;28;102718;-49
2021/12/13 07:59:28;;;;;;;5.80;5.40;;;;;;;23.09;30.22;95173.50;4979421;28;103499;-49
2021/12/13 08:02:08;;;;;;;6.43;5.93;;;;;;;23.06;30.40;95170.66;4980301;28;102748;-49
2021/12/13 08:04:36;;;;;;;6.47;5.97;;;;;;;22.98;30.44;95180.16;4980298;28;102709;-49
2021/12/13 08:07:11;;;;;;;5.80;5.40;;;;;;;22.93;30.18;95177.59;4974559;28;102688;-49
2021/12/13 08:09:48;;;;;;;6.83;6.23;;;;;;;22.87;30.06;95176.16;4979769;28;102749;-49
2021/12/13 08:12:30;;;;;;;6.27;5.77;;;;;;;22.87;30.52;95180.69;4980420;28;103236;-49
2021/12/13 08:15:17;;;;;;;6.30;5.87;;;;;;;22.85;30.21;95183.66;4979476;28;102708;-49
2021/12/13 08:17:50;;;;;;;6.13;5.63;;;;;;;22.84;30.19;95181.28;4973872;28;102796;-49
2021/12/13 08:20:25;;;;;;;6.30;5.90;;;;;;;22.83;30.22;95185.03;4979435;28;103305;-49
2021/12/13 08:22:51;;;;;;;6.27;5.77;;;;;;;22.81;30.16;95193.28;4979774;28;103344;-49
2021/12/13 08:25:25;;;;;;;6.73;6.23;;;;;;;22.79;30.42;95182.16;4980212;28;102924;-49
2021/12/13 08:27:59;;;;;;;6.90;6.40;;;;;;;22.76;30.28;95180.88;4974752;28;104331;-49
2021/12/13 08:30:29;;;;;;;6.83;6.33;;;;;;;22.78;29.92;95189.34;4979381;28;103322;-49
2021/12/13 08:33:07;;;;;;;6.30;5.80;;;;;;;22.78;30.19;95193.91;4979438;28;103211;-49
2021/12/13 08:35:57;;;;;;;6.30;5.83;;;;;;;22.73;30.24;95184.16;4980000;28;102798;-49
2021/12/13 08:38:31;;;;;;;7.10;6.60;;;;;;;22.77;30.07;95190.44;4974153;28;102659;-49
2021/12/13 08:41:01;;;;;;;6.73;6.23;;;;;;;22.76;29.82;95191.53;4979342;28;102998;-49
2021/12/13 08:43:54;;;;;;;6.93;6.33;;;;;;;22.76;29.86;95193.41;4979277;28;102566;-49
2021/12/13 08:46:31;;;;;;;6.57;6.10;;;;;;;22.77;30.04;95184.34;4976640;28;104203;-49
2021/12/13 08:48:57;;;;;;;7.27;6.77;;;;;;;22.75;29.92;95175.84;4978999;28;104233;-49
2021/12/13 08:51:26;;;;;;;6.70;6.20;;;;;;;22.75;30.17;95184.63;4973752;28;102756;-49
2021/12/13 08:54:10;;;;;;;5.70;5.30;;;;;;;22.72;29.86;95181.78;4979458;28;102888;-49
2021/12/13 08:56:49;;;;;;;6.80;6.30;;;;;;;22.75;30.19;95184.63;4979636;28;102613;-49
2021/12/13 08:59:25;;;;;;;8.20;7.60;;;;;;;22.75;30.17;95184.63;4977578;28;103018;-49
2021/12/13 09:02:07;;;;;;;7.40;6.70;;;;;;;22.75;29.95;95186.50;4973712;28;103152;-49
2021/12/13 09:04:55;;;;;;;8.07;7.47;;;;;;;22.72;30.24;95190.56;4978934;28;102764;-49
2021/12/13 09:07:23;;;;;;;7.50;7.00;;;;;;;22.64;30.01;95175.28;4977962;28;102764;-49
2021/12/13 09:09:49;;;;;;;7.00;6.50;;;;;;;22.76;30.29;95188.09;4978181;28;102534;-49
2021/12/13 09:12:30;;;;;;;8.03;7.43;;;;;;;22.77;30.26;95193.13;4974309;28;102964;-49
2021/12/13 09:14:58;;;;;;;7.23;6.63;;;;;;;22.78;29.86;95192.03;4977685;28;102713;-49
2021/12/13 09:17:31;;;;;;;7.63;7.03;;;;;;;22.77;30.07;95187.00;4978892;28;102783;-49
2021/12/13 09:20:04;;;;;;;8.10;7.50;;;;;;;22.77;30.23;95184.34;4978978;28;102708;-49
2021/12/13 09:22:42;;;;;;;6.80;6.30;;;;;;;22.78;29.96;95181.38;4973600;28;103047;-49
2021/12/13 09:25:18;;;;;;;6.20;5.80;;;;;;;22.79;30.08;95190.16;4979498;28;102626;-49
2021/12/13 09:27:49;;;;;;;6.00;5.60;;;;;;;22.71;30.24;95166.91;4979148;28;102800;-49
2021/12/13 09:30:33;;;;;;;7.30;6.70;;;;;;;22.79;30.18;95174.94;4977441;28;102780;-49
2021/12/13 09:33:07;;;;;;;7.03;6.53;;;;;;;22.81;30.09;95174.66;4977922;28;102685;-49
2021/12/13 09:35:48;;;;;;;8.00;7.40;;;;;;;22.79;30.02;95168.84;4973744;28;102916;-49
2021/12/13 09:38:25;;;;;;;7.40;6.80;;;;;;;22.80;30.07;95170.41;4978010;28;102693;-49
2021/12/13 09:41:04;;;;;;;6.93;6.43;;;;;;;22.80;30.25;95170.41;4981696;28;102702;-49
2021/12/13 09:44:01;;;;;;;7.87;7.27;;;;;;;22.77;30.51;95168.34;4982341;28;103350;-49
2021/12/13 09:46:31;;;;;;;7.47;6.87;;;;;;;22.77;30.46;95171.00;4943429;28;103087;-49
2021/12/13 09:49:00;;;;;;;7.00;6.50;;;;;;;22.77;30.17;95171.00;4982541;28;102763;-49
2021/12/13 09:51:47;;;;;;;6.73;6.23;;;;;;;22.75;30.35;95167.88;4981972;28;103510;-49
2021/12/13 09:54:17;;;;;;;7.07;6.57;;;;;;;22.76;30.67;95169.44;4981633;28;102938;-49
2021/12/13 09:56:49;;;;;;;7.20;6.70;;;;;;;22.76;30.22;95169.44;4975075;28;102817;-49
2021/12/13 09:59:31;;;;;;;6.20;5.70;;;;;;;22.75;30.36;95162.53;4981170;28;102825;-49
2021/12/13 10:01:59;;;;;;;7.30;6.80;;;;;;;22.75;29.79;95162.53;4981186;28;102743;-49
2021/12/13 10:04:31;;;;;;;7.83;7.23;;;;;;;22.73;30.31;95165.50;4982234;28;102748;-49
2021/12/13 10:07:04;;;;;;;7.57;6.97;;;;;;;22.72;30.03;95158.59;4976464;28;103415;-49
2021/12/13 10:09:35;;;;;;;7.63;7.13;;;;;;;22.68;30.04;95152.31;4981779;28;102975;-49
2021/12/13 10:12:08;;;;;;;8.13;7.53;;;;;;;22.73;30.15;95167.38;4981369;28;102766;-49
2021/12/13 10:14:43;;;;;;;7.43;6.93;;;;;;;22.68;30.06;95154.19;4981453;28;102832;-49
2021/12/13 10:17:13;;;;;;;7.23;6.73;;;;;;;22.72;30.03;95158.59;4981940;28;103153;-49
2021/12/13 10:19:47;;;;;;;8.23;7.63;;;;;;;22.73;30.05;95160.19;4978214;28;102810;-49
2021/12/13 10:22:16;;;;;;;8.50;7.90;;;;;;;22.73;30.45;95156.72;4981352;28;102687;-49
2021/12/13 10:24:56;;;;;;;7.67;7.17;;;;;;;22.73;30.12;95159.38;4981790;28;104144;-49
2021/12/13 10:27:22;;;;;;;6.50;6.00;;;;;;;22.72;30.36;95141.84;4981000;28;102740;-49
2021/12/13 10:29:55;;;;;;;7.50;6.90;;;;;;;22.68;30.26;95135.53;4977050;28;103539;-49
2021/12/13 10:32:32;;;;;;;7.20;6.70;;;;;;;22.72;29.99;95142.63;4981618;28;103216;-49
2021/12/13 10:35:07;;;;;;;7.10;6.60;;;;;;;22.73;30.30;95148.75;4981689;28;102675;-49
2021/12/13 10:37:40;;;;;;;7.00;6.50;;;;;;;22.70;30.17;95138.69;4981393;28;103964;-49
2021/12/13 10:40:25;;;;;;;6.73;6.20;;;;;;;22.71;30.29;95143.72;4958340;28;102843;-49
2021/12/13 10:42:55;;;;;;;7.77;7.10;;;;;;;22.72;29.96;95147.16;4981061;28;103821;-49
2021/12/13 10:45:25;;;;;;;7.47;6.87;;;;;;;22.68;30.17;95138.19;4981248;28;102719;-49
2021/12/13 10:47:54;;;;;;;7.67;6.97;;;;;;;22.70;30.06;95136.03;4962902;28;102535;-49
2021/12/13 10:50:36;;;;;;;6.97;6.47;;;;;;;22.70;30.14;95144.00;4977165;28;102730;-49
2021/12/13 10:53:08;;;;;;;7.80;7.20;;;;;;;22.70;30.04;95138.69;4979828;28;103690;-49
2021/12/13 10:55:44;;;;;;;8.60;7.93;;;;;;;22.71;29.95;95137.59;4981261;28;103397;-49
2021/12/13 10:58:13;;;;;;;7.93;7.17;;;;;;;22.61;30.21;95119.97;4980433;28;102700;-49
2021/12/13 11:00:45;;;;;;;7.50;6.90;;;;;;;22.69;30.21;95132.56;4980758;28;102804;-49
2021/12/13 11:03:18;;;;;;;7.63;7.03;;;;;;;22.70;29.83;95133.38;4976405;28;103159;-49
2021/12/13 11:05:46;;;;;;;7.13;6.63;;;;;;;22.69;30.15;95137.91;4980140;28;103623;-49
2021/12/13 11:08:16;;;;;;;7.40;6.80;;;;;;;22.69;30.21;95134.44;4980758;28;102746;-49
2021/12/13 11:10:52;;;;;;;7.00;6.50;;;;;;;22.64;29.99;95129.22;4981193;28;103156;-49
2021/12/13 11:13:19;;;;;;;6.13;5.73;;;;;;;22.70;30.13;95128.03;4975077;28;103350;-49
2021/12/13 11:15:48;;;;;;;6.53;6.03;;;;;;;22.69;30.31;95137.91;4980769;28;102780;-49
2021/12/13 11:18:17;;;;;;;6.70;6.20;;;;;;;22.71;29.98;95126.94;4980537;28;102789;-49
2021/12/13 11:20:49;;;;;;;6.73;6.17;;;;;;;22.70;29.90;95126.16;4980449;28;103255;-49
2021/12/13 11:23:18;;;;;;;6.27;5.67;;;;;;;22.71;29.94;95129.59;4980844;28;103205;-49
2021/12/13 11:25:51;;;;;;;6.67;6.17;;;;;;;22.70;29.88;95128.03;4976912;28;102925;-49
2021/12/13 11:28:17;;;;;;;6.10;5.70;;;;;;;22.70;29.63;95134.16;4980560;28;103242;-49
2021/12/13 11:30:46;;;;;;;5.90;5.40;;;;;;;22.69;29.79;95121.91;4981038;28;103042;-49
2021/12/13 11:33:22;;;;;;;6.70;6.20;;;;;;;22.69;29.75;95121.13;4980625;28;102913;-49
2021/12/13 11:36:25;;;;;;;5.93;5.53;;;;;;;22.69;29.91;95126.47;4974273;28;103906;-49
2021/12/13 11:39:02;;;;;;;5.57;5.17;;;;;;;22.69;29.38;95129.13;4962238;28;103011;-49
2021/12/13 11:41:53;;;;;;;6.23;5.73;;;;;;;22.68;29.72;95116.91;4979221;28;103267;-49
2021/12/13 11:44:40;;;;;;;5.83;5.43;;;;;;;22.69;29.55;95123.78;4980038;28;102678;-49
2021/12/13 11:47:34;;;;;;;5.90;5.50;;;;;;;22.68;29.95;95132.88;4974872;28;102758;-49
2021/12/13 11:50:29;;;;;;;5.43;5.03;;;;;;;22.68;29.87;95132.88;4981003;28;103082;-49
2021/12/13 11:53:32;;;;;;;5.80;5.40;;;;;;;22.67;29.83;95131.28;4980940;28;103305;-49
2021/12/13 11:56:13;;;;;;;5.50;5.10;;;;;;;22.68;29.66;95135.53;4980330;28;103387;-49
2021/12/13 11:58:58;;;;;;;5.57;4.97;;;;;;;22.67;29.61;95129.41;4975151;28;102778;-49
2021/12/13 12:01:47;;;;;;;5.43;5.03;;;;;;;22.67;29.73;95131.28;4978580;28;102782;-49
2021/12/13 12:04:49;;;;;;;5.73;5.33;;;;;;;22.67;29.49;95131.28;4979159;28;102798;-49
2021/12/13 12:07:42;;;;;;;5.60;5.30;;;;;;;22.68;29.86;95135.53;4980141;28;103320;-49
2021/12/13 12:10:45;;;;;;;4.80;4.40;;;;;;;22.68;29.92;95133.66;4979917;28;102751;-49
2021/12/13 12:13:26;;;;;;;4.70;4.40;;;;;;;22.68;29.69;95138.19;4978987;28;103176;-49